Main page
METAR-TAF:

METAR-TAF

Airports :

Price County Airport

Phillips, Wisconsin, United States

latitude: 45-42N, longitude: 090-24W, elevation: 1473 ft

Current weather observation

The report was made 26 minutes ago, at 17:35 UTC
Wind 3 mph from the East
Temperature 43°F
Humidity 36%
Pressure 30.28 in. Hg
Visibility: 10 miles
Clear sky

METAR: KPBH 241735Z AUTO 10003KT 10SM CLR 06/M08 A3028 RMK AO2 T00641081

Time: 13:01 (18:01 UTC)


TAF: missing

Weather observations and forecasts of more than 4000 airports (METAR and TAF reports).

The available stations are represented by yellow and red dots on the map.

Hover mouse over dot to see the name of the station.

Then click to see weather observations and forecasts.

To change the map : click on the green buttons with a black cross to zoom in, on the green button with a dash to zoom out, or on the green arrows for adjacent maps.


METAR-TAF: